sensor_id;sensor_type;location;lat;lon;timestamp;P1;P2;P0
14880;PMS7003;7533;51.278;12.588;2023-04-01T00:01:00;3.00;2.25;1.00
14880;PMS7003;7533;51.278;12.588;2023-04-01T00:06:06;1.75;1.75;0.00
14880;PMS7003;7533;51.278;12.588;2023-04-01T00:11:09;3.00;3.00;0.00
14880;PMS7003;7533;51.278;12.588;2023-04-01T00:16:12;3.75;1.00;0.00
14880;PMS7003;7533;51.278;12.588;2023-04-01T00:21:24;1.75;1.75;0.75
14880;PMS7003;7533;51.278;12.588;2023-04-01T00:26:27;4.25;3.00;0.00
14880;PMS7003;7533;51.278;12.588;2023-04-01T00:31:30;2.25;2.25;0.25
14880;PMS7003;7533;51.278;12.588;2023-04-01T00:36:34;2.75;1.50;0.00
14880;PMS7003;7533;51.278;12.588;2023-04-01T00:41:37;3.50;1.25;0.00
14880;PMS7003;7533;51.278;12.588;2023-04-01T00:46:40;3.75;2.25;1.00
14880;PMS7003;7533;51.278;12.588;2023-04-01T00:51:44;3.00;3.00;0.25
14880;PMS7003;7533;51.278;12.588;2023-04-01T00:56:50;3.50;2.00;1.00
14880;PMS7003;7533;51.278;12.588;2023-04-01T01:01:57;2.00;2.00;0.00
14880;PMS7003;7533;51.278;12.588;2023-04-01T01:07:05;1.00;1.00;0.00
14880;PMS7003;7533;51.278;12.588;2023-04-01T01:12:20;3.25;1.75;0.00
14880;PMS7003;7533;51.278;12.588;2023-04-01T01:17:32;1.25;1.25;0.00
14880;PMS7003;7533;51.278;12.588;2023-04-01T01:22:51;2.50;0.75;0.00
14880;PMS7003;7533;51.278;12.588;2023-04-01T01:28:08;2.25;2.00;0.00
14880;PMS7003;7533;51.278;12.588;2023-04-01T01:33:41;2.00;2.00;0.75
14880;PMS7003;7533;51.278;12.588;2023-04-01T01:38:52;2.00;2.00;1.00
14880;PMS7003;7533;51.278;12.588;2023-04-01T01:43:56;3.00;1.75;0.00
14880;PMS7003;7533;51.278;12.588;2023-04-01T01:49:02;3.25;3.25;1.00
14880;PMS7003;7533;51.278;12.588;2023-04-01T01:54:11;0.00;0.00;0.00
14880;PMS7003;7533;51.278;12.588;2023-04-01T01:59:15;2.00;2.00;0.00
14880;PMS7003;7533;51.278;12.588;2023-04-01T02:04:23;3.00;1.75;0.00
14880;PMS7003;7533;51.278;12.588;2023-04-01T02:09:27;1.50;1.00;0.00
14880;PMS7003;7533;51.278;12.588;2023-04-01T02:14:33;2.00;0.25;0.00
14880;PMS7003;7533;51.278;12.588;2023-04-01T02:19:43;1.75;0.25;0.00
14880;PMS7003;7533;51.278;12.588;2023-04-01T02:24:53;1.25;1.25;0.25
14880;PMS7003;7533;51.278;12.588;2023-04-01T02:29:59;4.00;1.00;0.00
14880;PMS7003;7533;51.278;12.588;2023-04-01T02:35:05;1.75;1.75;0.25
14880;PMS7003;7533;51.278;12.588;2023-04-01T02:40:12;2.25;1.00;0.00
14880;PMS7003;7533;51.278;12.588;2023-04-01T02:45:16;1.00;1.00;0.25
14880;PMS7003;7533;51.278;12.588;2023-04-01T02:50:19;2.25;1.00;0.00
14880;PMS7003;7533;51.278;12.588;2023-04-01T02:55:24;1.25;0.50;0.00
14880;PMS7003;7533;51.278;12.588;2023-04-01T03:00:27;0.75;0.75;0.00
14880;PMS7003;7533;51.278;12.588;2023-04-01T03:05:30;1.25;1.25;0.00
14880;PMS7003;7533;51.278;12.588;2023-04-01T03:10:34;2.00;2.00;0.00
14880;PMS7003;7533;51.278;12.588;2023-04-01T03:15:37;2.00;2.00;0.75
14880;PMS7003;7533;51.278;12.588;2023-04-01T03:20:40;2.00;2.00;0.00
14880;PMS7003;7533;51.278;12.588;2023-04-01T03:25:45;3.00;2.00;0.50
14880;PMS7003;7533;51.278;12.588;2023-04-01T03:30:49;1.25;1.00;0.00
14880;PMS7003;7533;51.278;12.588;2023-04-01T03:35:52;1.75;1.75;0.00
14880;PMS7003;7533;51.278;12.588;2023-04-01T03:40:57;3.00;3.00;0.00
14880;PMS7003;7533;51.278;12.588;2023-04-01T03:46:00;1.00;1.00;0.00
14880;PMS7003;7533;51.278;12.588;2023-04-01T03:51:06;1.75;1.00;0.00
14880;PMS7003;7533;51.278;12.588;2023-04-01T03:56:11;1.50;0.75;0.00
14880;PMS7003;7533;51.278;12.588;2023-04-01T04:01:16;2.00;2.00;0.00
14880;PMS7003;7533;51.278;12.588;2023-04-01T04:06:24;1.50;1.50;0.00
14880;PMS7003;7533;51.278;12.588;2023-04-01T04:11:29;1.50;1.00;0.00
14880;PMS7003;7533;51.278;12.588;2023-04-01T04:16:34;0.00;0.00;0.00
14880;PMS7003;7533;51.278;12.588;2023-04-01T04:21:39;1.00;0.25;0.00
14880;PMS7003;7533;51.278;12.588;2023-04-01T04:26:44;0.50;0.00;0.00
14880;PMS7003;7533;51.278;12.588;2023-04-01T04:31:47;2.00;2.00;0.00
14880;PMS7003;7533;51.278;12.588;2023-04-01T04:36:50;2.00;0.50;0.00
14880;PMS7003;7533;51.278;12.588;2023-04-01T04:41:56;1.00;1.00;0.00
14880;PMS7003;7533;51.278;12.588;2023-04-01T04:46:59;1.50;1.00;0.00
14880;PMS7003;7533;51.278;12.588;2023-04-01T04:52:01;1.00;1.00;0.00
14880;PMS7003;7533;51.278;12.588;2023-04-01T04:57:06;0.00;0.00;0.00
14880;PMS7003;7533;51.278;12.588;2023-04-01T05:02:16;1.50;1.00;0.00
14880;PMS7003;7533;51.278;12.588;2023-04-01T05:07:18;0.00;0.00;0.00
14880;PMS7003;7533;51.278;12.588;2023-04-01T05:12:23;1.50;1.50;0.00
14880;PMS7003;7533;51.278;12.588;2023-04-01T05:17:34;0.75;0.00;0.00
14880;PMS7003;7533;51.278;12.588;2023-04-01T05:22:38;0.75;0.50;0.00
14880;PMS7003;7533;51.278;12.588;2023-04-01T05:27:42;0.00;0.00;0.00
14880;PMS7003;7533;51.278;12.588;2023-04-01T05:32:45;0.75;0.75;0.00
14880;PMS7003;7533;51.278;12.588;2023-04-01T05:37:47;1.75;0.75;0.00
14880;PMS7003;7533;51.278;12.588;2023-04-01T05:42:53;1.00;1.00;0.00
14880;PMS7003;7533;51.278;12.588;2023-04-01T05:47:56;1.25;1.25;0.00
14880;PMS7003;7533;51.278;12.588;2023-04-01T05:52:59;1.75;1.25;0.00
14880;PMS7003;7533;51.278;12.588;2023-04-01T05:58:03;0.75;0.75;0.00
14880;PMS7003;7533;51.278;12.588;2023-04-01T06:03:08;1.75;1.00;0.00
14880;PMS7003;7533;51.278;12.588;2023-04-01T06:08:11;4.75;3.00;0.00
14880;PMS7003;7533;51.278;12.588;2023-04-01T06:13:23;2.00;0.00;0.00
14880;PMS7003;7533;51.278;12.588;2023-04-01T06:18:41;0.50;0.50;0.00
14880;PMS7003;7533;51.278;12.588;2023-04-01T06:23:57;0.50;0.00;0.00
14880;PMS7003;7533;51.278;12.588;2023-04-01T06:29:31;1.75;1.75;0.00
14880;PMS7003;7533;51.278;12.588;2023-04-01T06:35:02;0.00;0.00;0.00
14880;PMS7003;7533;51.278;12.588;2023-04-01T06:40:42;0.00;0.00;0.00
14880;PMS7003;7533;51.278;12.588;2023-04-01T06:46:04;0.00;0.00;0.00
14880;PMS7003;7533;51.278;12.588;2023-04-01T06:51:36;1.00;0.75;0.00
14880;PMS7003;7533;51.278;12.588;2023-04-01T06:57:19;0.75;0.75;0.00
14880;PMS7003;7533;51.278;12.588;2023-04-01T07:02:28;1.00;1.00;0.00
14880;PMS7003;7533;51.278;12.588;2023-04-01T07:07:39;0.00;0.00;0.00
14880;PMS7003;7533;51.278;12.588;2023-04-01T07:12:47;0.00;0.00;0.00
14880;PMS7003;7533;51.278;12.588;2023-04-01T07:18:15;0.75;0.50;0.00
14880;PMS7003;7533;51.278;12.588;2023-04-01T07:23:22;0.50;0.00;0.00
14880;PMS7003;7533;51.278;12.588;2023-04-01T07:28:52;0.25;0.25;0.00
14880;PMS7003;7533;51.278;12.588;2023-04-01T07:34:11;0.00;0.00;0.00
14880;PMS7003;7533;51.278;12.588;2023-04-01T07:39:25;68.00;54.80;31.40
14880;PMS7003;7533;51.278;12.588;2023-04-01T07:44:54;216.40;170.40;81.20
14880;PMS7003;7533;51.278;12.588;2023-04-01T07:50:10;325.00;260.33;114.67
14880;PMS7003;7533;51.278;12.588;2023-04-01T07:55:21;351.33;289.67;122.67
14880;PMS7003;7533;51.278;12.588;2023-04-01T08:00:30;375.25;301.50;132.50
14880;PMS7003;7533;51.278;12.588;2023-04-01T08:05:53;221.40;179.80;83.80
14880;PMS7003;7533;51.278;12.588;2023-04-01T08:11:02;229.40;181.60;82.40
14880;PMS7003;7533;51.278;12.588;2023-04-01T08:16:35;204.80;164.40;71.20
14880;PMS7003;7533;51.278;12.588;2023-04-01T08:21:52;190.60;152.80;71.00
14880;PMS7003;7533;51.278;12.588;2023-04-01T08:26:59;177.00;145.60;69.00
14880;PMS7003;7533;51.278;12.588;2023-04-01T08:32:08;168.80;140.00;63.40
14880;PMS7003;7533;51.278;12.588;2023-04-01T08:37:17;162.20;132.80;60.00
14880;PMS7003;7533;51.278;12.588;2023-04-01T08:42:31;169.00;134.20;61.00
14880;PMS7003;7533;51.278;12.588;2023-04-01T08:53:36;143.00;113.20;51.20
14880;PMS7003;7533;51.278;12.588;2023-04-01T09:04:33;130.40;104.60;49.40
14880;PMS7003;7533;51.278;12.588;2023-04-01T09:21:12;122.40;102.00;47.20
14880;PMS7003;7533;51.278;12.588;2023-04-01T09:26:35;120.60;104.00;46.40
14880;PMS7003;7533;51.278;12.588;2023-04-01T09:32:01;129.20;101.60;47.40
14880;PMS7003;7533;51.278;12.588;2023-04-01T09:37:32;116.80;97.00;46.20
14880;PMS7003;7533;51.278;12.588;2023-04-01T09:42:49;124.60;101.40;49.20
14880;PMS7003;7533;51.278;12.588;2023-04-01T09:48:15;118.40;103.00;46.20
14880;PMS7003;7533;51.278;12.588;2023-04-01T09:53:35;112.80;93.40;46.00
14880;PMS7003;7533;51.278;12.588;2023-04-01T09:59:11;114.80;96.00;44.00
14880;PMS7003;7533;51.278;12.588;2023-04-01T10:10:37;111.60;91.20;45.00
14880;PMS7003;7533;51.278;12.588;2023-04-01T10:16:04;112.40;91.40;42.00
14880;PMS7003;7533;51.278;12.588;2023-04-01T10:21:42;112.20;88.40;41.80
14880;PMS7003;7533;51.278;12.588;2023-04-01T10:27:04;103.20;91.60;42.00
14880;PMS7003;7533;51.278;12.588;2023-04-01T10:38:39;94.60;78.20;39.40
14880;PMS7003;7533;51.278;12.588;2023-04-01T10:44:11;97.60;78.80;38.00
14880;PMS7003;7533;51.278;12.588;2023-04-01T10:50:01;96.40;78.60;37.40
14880;PMS7003;7533;51.278;12.588;2023-04-01T11:01:27;87.20;69.60;32.60
14880;PMS7003;7533;51.278;12.588;2023-04-01T11:13:43;72.40;56.00;29.00
14880;PMS7003;7533;51.278;12.588;2023-04-01T11:25:14;59.40;43.40;24.40
14880;PMS7003;7533;51.278;12.588;2023-04-01T11:31:00;66.20;46.40;26.00
14880;PMS7003;7533;51.278;12.588;2023-04-01T11:36:17;57.80;42.00;24.60
14880;PMS7003;7533;51.278;12.588;2023-04-01T11:41:34;57.20;43.60;23.00
14880;PMS7003;7533;51.278;12.588;2023-04-01T11:47:21;53.40;41.00;22.00
14880;PMS7003;7533;51.278;12.588;2023-04-01T11:52:39;49.00;38.80;20.20
14880;PMS7003;7533;51.278;12.588;2023-04-01T11:58:02;44.80;34.40;20.00
14880;PMS7003;7533;51.278;12.588;2023-04-01T12:03:29;44.00;32.80;18.00
14880;PMS7003;7533;51.278;12.588;2023-04-01T12:08:46;46.20;35.00;17.80
14880;PMS7003;7533;51.278;12.588;2023-04-01T12:13:59;41.40;33.40;17.20
14880;PMS7003;7533;51.278;12.588;2023-04-01T12:19:13;38.60;30.00;15.00
14880;PMS7003;7533;51.278;12.588;2023-04-01T12:29:54;30.50;25.50;11.00
14880;PMS7003;7533;51.278;12.588;2023-04-01T12:35:20;27.00;21.25;11.50
14880;PMS7003;7533;51.278;12.588;2023-04-01T12:40:30;27.00;23.75;9.00
14880;PMS7003;7533;51.278;12.588;2023-04-01T12:45:49;26.75;22.75;9.75
14880;PMS7003;7533;51.278;12.588;2023-04-01T12:51:09;22.50;18.75;8.75
14880;PMS7003;7533;51.278;12.588;2023-04-01T12:56:31;18.50;16.50;9.00
14880;PMS7003;7533;51.278;12.588;2023-04-01T13:01:52;19.75;16.75;7.00
14880;PMS7003;7533;51.278;12.588;2023-04-01T13:07:21;20.50;16.00;7.75
14880;PMS7003;7533;51.278;12.588;2023-04-01T13:12:36;17.75;16.25;6.75
14880;PMS7003;7533;51.278;12.588;2023-04-01T13:17:49;17.75;14.00;7.50
14880;PMS7003;7533;51.278;12.588;2023-04-01T13:23:00;15.00;13.25;7.00
14880;PMS7003;7533;51.278;12.588;2023-04-01T13:28:14;14.75;10.25;5.00
14880;PMS7003;7533;51.278;12.588;2023-04-01T13:33:25;11.00;10.00;5.00
14880;PMS7003;7533;51.278;12.588;2023-04-01T13:44:17;14.25;11.75;5.75
14880;PMS7003;7533;51.278;12.588;2023-04-01T13:49:29;16.00;13.75;5.25
14880;PMS7003;7533;51.278;12.588;2023-04-01T13:54:47;13.75;12.00;4.50
14880;PMS7003;7533;51.278;12.588;2023-04-01T14:00:18;11.00;9.75;4.00
14880;PMS7003;7533;51.278;12.588;2023-04-01T14:05:36;11.75;8.50;4.25
14880;PMS7003;7533;51.278;12.588;2023-04-01T14:10:55;12.25;7.75;3.75
14880;PMS7003;7533;51.278;12.588;2023-04-01T14:16:47;11.00;9.00;4.00
14880;PMS7003;7533;51.278;12.588;2023-04-01T14:22:03;8.50;7.50;4.00
14880;PMS7003;7533;51.278;12.588;2023-04-01T14:27:17;10.25;7.50;4.00
14880;PMS7003;7533;51.278;12.588;2023-04-01T14:32:37;10.50;10.00;4.00
14880;PMS7003;7533;51.278;12.588;2023-04-01T14:48:59;6.25;5.50;2.00
14880;PMS7003;7533;51.278;12.588;2023-04-01T14:54:08;7.50;7.50;2.50
14880;PMS7003;7533;51.278;12.588;2023-04-01T14:59:27;6.75;5.25;3.00
14880;PMS7003;7533;51.278;12.588;2023-04-01T15:04:43;5.75;4.75;1.75
14880;PMS7003;7533;51.278;12.588;2023-04-01T15:09:54;7.50;7.00;2.00
14880;PMS7003;7533;51.278;12.588;2023-04-01T15:15:11;7.50;5.00;2.00
14880;PMS7003;7533;51.278;12.588;2023-04-01T15:20:31;4.75;4.75;2.00
14880;PMS7003;7533;51.278;12.588;2023-04-01T15:25:54;6.50;5.00;2.00
14880;PMS7003;7533;51.278;12.588;2023-04-01T15:31:13;6.00;4.00;1.25
14880;PMS7003;7533;51.278;12.588;2023-04-01T15:36:27;2.75;2.75;1.00
14880;PMS7003;7533;51.278;12.588;2023-04-01T15:41:36;8.25;4.25;1.25
14880;PMS7003;7533;51.278;12.588;2023-04-01T15:46:47;4.67;4.33;1.67
14880;PMS7003;7533;51.278;12.588;2023-04-01T15:51:58;5.00;4.00;2.00
14880;PMS7003;7533;51.278;12.588;2023-04-01T15:57:09;5.25;4.25;1.75
14880;PMS7003;7533;51.278;12.588;2023-04-01T16:02:21;5.25;4.50;1.50
14880;PMS7003;7533;51.278;12.588;2023-04-01T16:07:51;4.25;4.25;2.00
14880;PMS7003;7533;51.278;12.588;2023-04-01T16:13:12;4.00;3.00;1.00
14880;PMS7003;7533;51.278;12.588;2023-04-01T16:24:10;4.25;3.25;1.50
14880;PMS7003;7533;51.278;12.588;2023-04-01T16:29:22;4.50;3.25;2.00
14880;PMS7003;7533;51.278;12.588;2023-04-01T16:34:34;4.50;3.75;1.00
14880;PMS7003;7533;51.278;12.588;2023-04-01T16:39:46;4.25;4.25;1.00
14880;PMS7003;7533;51.278;12.588;2023-04-01T16:44:55;5.25;5.25;2.00
14880;PMS7003;7533;51.278;12.588;2023-04-01T16:50:13;4.50;3.25;1.00
14880;PMS7003;7533;51.278;12.588;2023-04-01T16:55:23;4.00;4.00;1.75
14880;PMS7003;7533;51.278;12.588;2023-04-01T17:00:37;4.25;3.00;2.00
14880;PMS7003;7533;51.278;12.588;2023-04-01T17:05:47;4.50;3.75;1.50
14880;PMS7003;7533;51.278;12.588;2023-04-01T17:11:01;4.50;3.75;1.75
14880;PMS7003;7533;51.278;12.588;2023-04-01T17:16:13;3.25;3.00;1.00
14880;PMS7003;7533;51.278;12.588;2023-04-01T17:21:38;2.00;2.00;0.25
14880;PMS7003;7533;51.278;12.588;2023-04-01T17:26:51;4.00;3.00;1.75
14880;PMS7003;7533;51.278;12.588;2023-04-01T17:32:03;4.75;3.00;1.25
14880;PMS7003;7533;51.278;12.588;2023-04-01T17:37:20;4.00;3.00;1.00
14880;PMS7003;7533;51.278;12.588;2023-04-01T17:42:37;5.75;4.00;1.50
14880;PMS7003;7533;51.278;12.588;2023-04-01T17:47:47;4.25;4.25;1.50
14880;PMS7003;7533;51.278;12.588;2023-04-01T17:53:11;3.25;3.25;1.00
14880;PMS7003;7533;51.278;12.588;2023-04-01T17:58:29;3.00;2.00;1.00
14880;PMS7003;7533;51.278;12.588;2023-04-01T18:03:41;4.25;3.00;1.00
14880;PMS7003;7533;51.278;12.588;2023-04-01T18:08:57;2.75;2.00;1.00
14880;PMS7003;7533;51.278;12.588;2023-04-01T18:19:38;3.75;3.00;1.00
14880;PMS7003;7533;51.278;12.588;2023-04-01T18:24:54;4.25;3.25;1.00
14880;PMS7003;7533;51.278;12.588;2023-04-01T18:30:06;3.75;2.00;1.00
14880;PMS7003;7533;51.278;12.588;2023-04-01T18:35:24;4.00;2.50;0.00
14880;PMS7003;7533;51.278;12.588;2023-04-01T18:40:37;6.00;4.50;2.00
14880;PMS7003;7533;51.278;12.588;2023-04-01T18:45:46;3.25;2.00;1.00
14880;PMS7003;7533;51.278;12.588;2023-04-01T18:50:56;2.25;2.25;0.50
14880;PMS7003;7533;51.278;12.588;2023-04-01T18:56:03;3.00;2.00;0.00
14880;PMS7003;7533;51.278;12.588;2023-04-01T19:01:14;5.00;3.75;0.00
14880;PMS7003;7533;51.278;12.588;2023-04-01T19:06:26;2.25;2.25;0.00
14880;PMS7003;7533;51.278;12.588;2023-04-01T19:11:35;3.00;1.50;0.00
14880;PMS7003;7533;51.278;12.588;2023-04-01T19:16:53;2.00;2.00;0.25
14880;PMS7003;7533;51.278;12.588;2023-04-01T19:22:12;3.50;2.25;0.00
14880;PMS7003;7533;51.278;12.588;2023-04-01T19:27:25;4.00;3.25;0.50
14880;PMS7003;7533;51.278;12.588;2023-04-01T19:32:37;4.00;2.25;0.00
14880;PMS7003;7533;51.278;12.588;2023-04-01T19:37:50;3.25;3.00;1.00
14880;PMS7003;7533;51.278;12.588;2023-04-01T19:42:58;3.75;2.75;1.00
14880;PMS7003;7533;51.278;12.588;2023-04-01T19:48:13;2.50;2.25;1.00
14880;PMS7003;7533;51.278;12.588;2023-04-01T19:53:35;2.50;1.25;0.25
14880;PMS7003;7533;51.278;12.588;2023-04-01T19:58:45;0.50;0.50;0.00
14880;PMS7003;7533;51.278;12.588;2023-04-01T20:03:55;2.25;2.25;1.00
14880;PMS7003;7533;51.278;12.588;2023-04-01T20:09:15;3.00;2.50;1.00
14880;PMS7003;7533;51.278;12.588;2023-04-01T20:14:38;2.75;2.75;1.00
14880;PMS7003;7533;51.278;12.588;2023-04-01T20:19:52;2.00;2.00;0.00
14880;PMS7003;7533;51.278;12.588;2023-04-01T20:25:00;3.00;3.00;1.00
14880;PMS7003;7533;51.278;12.588;2023-04-01T20:30:19;2.25;1.50;0.00
14880;PMS7003;7533;51.278;12.588;2023-04-01T20:35:45;1.00;1.00;1.00
14880;PMS7003;7533;51.278;12.588;2023-04-01T20:41:02;2.50;1.75;1.00
14880;PMS7003;7533;51.278;12.588;2023-04-01T20:46:15;3.00;2.75;1.00
14880;PMS7003;7533;51.278;12.588;2023-04-01T20:51:24;3.75;1.50;1.00
14880;PMS7003;7533;51.278;12.588;2023-04-01T20:56:44;1.00;1.00;0.25
14880;PMS7003;7533;51.278;12.588;2023-04-01T21:02:00;1.25;0.50;0.50
14880;PMS7003;7533;51.278;12.588;2023-04-01T21:07:24;2.00;2.00;1.00
14880;PMS7003;7533;51.278;12.588;2023-04-01T21:12:37;1.75;1.75;0.00
14880;PMS7003;7533;51.278;12.588;2023-04-01T21:17:52;0.00;0.00;0.00
14880;PMS7003;7533;51.278;12.588;2023-04-01T21:23:08;1.75;1.75;0.00
14880;PMS7003;7533;51.278;12.588;2023-04-01T21:28:26;4.25;3.00;1.00
14880;PMS7003;7533;51.278;12.588;2023-04-01T21:33:45;1.00;1.00;0.00
14880;PMS7003;7533;51.278;12.588;2023-04-01T21:39:18;3.00;1.75;0.50
14880;PMS7003;7533;51.278;12.588;2023-04-01T21:44:46;1.50;1.00;0.00
14880;PMS7003;7533;51.278;12.588;2023-04-01T21:50:03;1.25;1.25;0.00
14880;PMS7003;7533;51.278;12.588;2023-04-01T22:01:10;1.75;1.50;0.00
14880;PMS7003;7533;51.278;12.588;2023-04-01T22:06:26;3.00;1.00;0.00
14880;PMS7003;7533;51.278;12.588;2023-04-01T22:11:46;1.00;1.00;0.00
14880;PMS7003;7533;51.278;12.588;2023-04-01T22:17:03;1.00;1.00;0.50
14880;PMS7003;7533;51.278;12.588;2023-04-01T22:22:18;2.00;0.00;0.00
14880;PMS7003;7533;51.278;12.588;2023-04-01T22:27:28;0.50;0.50;0.00
14880;PMS7003;7533;51.278;12.588;2023-04-01T22:32:38;1.25;1.25;0.75
14880;PMS7003;7533;51.278;12.588;2023-04-01T22:37:47;2.50;1.25;0.00
14880;PMS7003;7533;51.278;12.588;2023-04-01T22:43:03;1.00;1.00;0.00
14880;PMS7003;7533;51.278;12.588;2023-04-01T22:48:11;1.00;1.00;0.50
14880;PMS7003;7533;51.278;12.588;2023-04-01T22:53:24;0.25;0.25;0.00
14880;PMS7003;7533;51.278;12.588;2023-04-01T22:58:37;1.00;1.00;0.00
14880;PMS7003;7533;51.278;12.588;2023-04-01T23:03:45;1.25;1.00;0.00
14880;PMS7003;7533;51.278;12.588;2023-04-01T23:08:55;4.00;2.75;0.75
14880;PMS7003;7533;51.278;12.588;2023-04-01T23:14:21;1.50;1.50;0.00
14880;PMS7003;7533;51.278;12.588;2023-04-01T23:19:41;1.00;1.00;0.00
14880;PMS7003;7533;51.278;12.588;2023-04-01T23:24:53;1.00;1.00;0.50
14880;PMS7003;7533;51.278;12.588;2023-04-01T23:30:03;1.00;1.00;0.00
14880;PMS7003;7533;51.278;12.588;2023-04-01T23:35:11;1.00;1.00;0.50
14880;PMS7003;7533;51.278;12.588;2023-04-01T23:40:18;1.00;1.00;0.00
14880;PMS7003;7533;51.278;12.588;2023-04-01T23:45:23;1.00;1.00;0.00
14880;PMS7003;7533;51.278;12.588;2023-04-01T23:50:25;1.00;0.50;0.00
14880;PMS7003;7533;51.278;12.588;2023-04-01T23:55:30;1.00;1.00;0.75
